Time;durP1;ratioP1;P1;durP2;ratioP2;P2;SDS_P1;SDS_P2;PMS_P1;PMS_P2;Temp;Humidity;BMP_temperature;BMP_pressure;BME280_temperature;BME280_humidity;BME280_pressure;Samples;Min_cycle;Max_cycle;Signal;HPM_P1;HPM_P2
2023/10/18 00:01:26;;;;;;;12.20;10.30;;;;;;;;;;5069643;27;98875;-72
2023/10/18 00:03:54;;;;;;;15.65;8.65;;;;;;;;;;5063056;27;100281;-72
2023/10/18 00:06:23;;;;;;;14.02;11.38;;;;;;;;;;5065235;27;100303;-71
2023/10/18 00:08:49;;;;;;;17.08;10.25;;;;;;;;;;5059552;27;99634;-71
2023/10/18 00:11:16;;;;;;;12.48;8.40;;;;;;;;;;5059019;27;100073;-71
2023/10/18 00:13:44;;;;;;;13.73;10.35;;;;;;;;;;5058189;27;100311;-71
2023/10/18 00:16:12;;;;;;;13.02;11.00;;;;;;;;;;5060877;27;100074;-72
2023/10/18 00:18:39;;;;;;;16.27;10.60;;;;;;;;;;5057980;27;98468;-72
2023/10/18 00:21:08;;;;;;;12.52;9.95;;;;;;;;;;5056293;27;99450;-72
2023/10/18 00:23:34;;;;;;;16.27;11.88;;;;;;;;;;5061587;27;99520;-73
2023/10/18 00:26:04;;;;;;;14.18;10.70;;;;;;;;;;5061946;27;98831;-71
2023/10/18 00:28:31;;;;;;;15.40;11.23;;;;;;;;;;5065048;27;98826;-72
2023/10/18 00:31:09;;;;;;;14.63;10.93;;;;;;;;;;5068811;27;98507;-72
2023/10/18 00:33:36;;;;;;;10.98;8.85;;;;;;;;;;5062105;27;100968;-72
2023/10/18 00:36:02;;;;;;;12.40;9.55;;;;;;;;;;5059496;27;99729;-73
2023/10/18 00:38:29;;;;;;;9.32;6.95;;;;;;;;;;5059839;27;98448;-72
2023/10/18 00:40:56;;;;;;;15.57;11.43;;;;;;;;;;5055717;27;99057;-71
2023/10/18 00:43:26;;;;;;;11.88;9.77;;;;;;;;;;5063309;27;100488;-72
2023/10/18 00:45:54;;;;;;;11.88;9.50;;;;;;;;;;5060351;27;98682;-72
2023/10/18 00:48:23;;;;;;;16.00;10.45;;;;;;;;;;5055590;27;99810;-72
2023/10/18 00:50:52;;;;;;;14.43;11.35;;;;;;;;;;5056550;27;99716;-72
2023/10/18 00:53:23;;;;;;;14.88;10.75;;;;;;;;;;5074552;27;99743;-71
2023/10/18 00:55:57;;;;;;;13.43;10.77;;;;;;;;;;5065618;27;98473;-72
2023/10/18 00:58:24;;;;;;;11.65;9.55;;;;;;;;;;5066721;27;98854;-72
2023/10/18 01:00:51;;;;;;;5.00;4.38;;;;;;;;;;5066411;27;100240;-71
2023/10/18 01:03:35;;;;;;;14.43;10.40;;;;;;;;;;5066789;27;98214;-72
2023/10/18 01:06:09;;;;;;;12.85;11.55;;;;;;;;;;5070756;27;98326;-72
2023/10/18 01:08:38;;;;;;;13.90;10.27;;;;;;;;;;5066503;27;98240;-72
2023/10/18 01:11:10;;;;;;;13.60;10.95;;;;;;;;;;5076085;27;99419;-71
2023/10/18 01:13:40;;;;;;;17.30;10.40;;;;;;;;;;5067906;27;100008;-72
2023/10/18 01:16:14;;;;;;;15.45;10.98;;;;;;;;;;5066416;27;98274;-73
2023/10/18 01:18:43;;;;;;;14.30;10.32;;;;;;;;;;5068325;27;98630;-72
2023/10/18 01:21:16;;;;;;;13.10;11.25;;;;;;;;;;5067504;27;98728;-72
2023/10/18 01:23:46;;;;;;;17.60;11.13;;;;;;;;;;5065825;27;98223;-72
2023/10/18 01:26:13;;;;;;;9.25;7.03;;;;;;;;;;5061113;27;99742;-72
2023/10/18 01:28:41;;;;;;;13.15;9.52;;;;;;;;;;5063211;27;100883;-71
2023/10/18 01:31:07;;;;;;;13.77;10.43;;;;;;;;;;5056861;27;98541;-73
2023/10/18 01:33:39;;;;;;;12.85;10.60;;;;;;;;;;5066554;27;100073;-72
2023/10/18 01:36:07;;;;;;;13.10;10.27;;;;;;;;;;5066527;27;98696;-72
2023/10/18 01:38:33;;;;;;;10.65;9.48;;;;;;;;;;5057564;27;99833;-72
2023/10/18 01:41:08;;;;;;;12.63;10.57;;;;;;;;;;5056355;27;101542;-72
2023/10/18 01:43:36;;;;;;;15.27;10.43;;;;;;;;;;5054661;27;100278;-72
2023/10/18 01:46:08;;;;;;;11.90;10.52;;;;;;;;;;5056221;27;100520;-72
2023/10/18 01:48:37;;;;;;;14.90;10.02;;;;;;;;;;5056386;27;98739;-71
2023/10/18 01:51:05;;;;;;;11.32;9.88;;;;;;;;;;5064198;27;100049;-72
2023/10/18 01:53:32;;;;;;;13.32;9.98;;;;;;;;;;5056200;27;99482;-71
2023/10/18 01:56:01;;;;;;;15.85;10.82;;;;;;;;;;5055343;27;98357;-71
2023/10/18 01:58:29;;;;;;;14.23;10.23;;;;;;;;;;5055874;27;100296;-71
2023/10/18 02:00:56;;;;;;;13.25;10.38;;;;;;;;;;5057337;27;101915;-72
2023/10/18 02:03:24;;;;;;;11.27;8.13;;;;;;;;;;5056976;27;100222;-71
2023/10/18 02:05:50;;;;;;;9.38;7.95;;;;;;;;;;5057325;27;99782;-72
2023/10/18 02:08:17;;;;;;;11.13;8.55;;;;;;;;;;5057033;27;100044;-72
2023/10/18 02:10:45;;;;;;;14.32;11.10;;;;;;;;;;5066814;27;99657;-73
2023/10/18 02:13:15;;;;;;;14.00;9.98;;;;;;;;;;5063860;27;98949;-72
2023/10/18 02:15:41;;;;;;;13.25;9.55;;;;;;;;;;5065880;27;98558;-72
2023/10/18 02:18:08;;;;;;;15.77;10.30;;;;;;;;;;5065160;27;99442;-72
2023/10/18 02:20:37;;;;;;;11.80;8.80;;;;;;;;;;5057149;27;99941;-72
2023/10/18 02:23:06;;;;;;;15.25;10.05;;;;;;;;;;5056627;27;99972;-72
2023/10/18 02:25:43;;;;;;;17.00;10.80;;;;;;;;;;5056536;27;99514;-72
2023/10/18 02:28:22;;;;;;;14.65;11.07;;;;;;;;;;5057922;27;99884;-73
2023/10/18 02:31:06;;;;;;;20.60;9.88;;;;;;;;;;5060968;27;98375;-71
2023/10/18 02:33:36;;;;;;;22.67;11.20;;;;;;;;;;5057945;27;98244;-71
2023/10/18 02:36:05;;;;;;;15.60;10.63;;;;;;;;;;5067246;27;99285;-73
2023/10/18 02:38:32;;;;;;;18.45;9.68;;;;;;;;;;5060648;27;100433;-72
2023/10/18 02:41:03;;;;;;;14.18;10.30;;;;;;;;;;5058066;27;98980;-71
2023/10/18 02:43:30;;;;;;;17.65;11.48;;;;;;;;;;5063054;27;100019;-72
2023/10/18 02:45:56;;;;;;;12.10;9.25;;;;;;;;;;5061237;27;98338;-72
2023/10/18 02:48:24;;;;;;;17.70;11.15;;;;;;;;;;5059292;27;98709;-72
2023/10/18 02:50:54;;;;;;;12.88;9.75;;;;;;;;;;5061249;27;100224;-72
2023/10/18 02:53:20;;;;;;;14.65;10.18;;;;;;;;;;5058551;27;99622;-73
2023/10/18 02:55:49;;;;;;;11.85;8.75;;;;;;;;;;5088069;27;101889;-72
2023/10/18 02:58:16;;;;;;;14.55;10.48;;;;;;;;;;5058995;27;98867;-72
2023/10/18 03:00:44;;;;;;;14.13;10.63;;;;;;;;;;5056175;27;99939;-72
2023/10/18 03:03:12;;;;;;;17.90;9.73;;;;;;;;;;5064405;27;98439;-72
2023/10/18 03:05:40;;;;;;;16.38;10.77;;;;;;;;;;5069846;27;99251;-71
2023/10/18 03:08:08;;;;;;;10.90;8.82;;;;;;;;;;5068838;27;99179;-72
2023/10/18 03:10:43;;;;;;;10.68;6.00;;;;;;;;;;5066841;27;98423;-71
2023/10/18 03:13:12;;;;;;;13.32;10.85;;;;;;;;;;5068406;27;98510;-72
2023/10/18 03:15:58;;;;;;;9.55;7.88;;;;;;;;;;5068770;27;98915;-73
2023/10/18 03:18:27;;;;;;;10.45;7.95;;;;;;;;;;5073255;27;98800;-72
2023/10/18 03:20:57;;;;;;;20.60;11.18;;;;;;;;;;5068612;27;99758;-72
2023/10/18 03:23:26;;;;;;;16.13;9.77;;;;;;;;;;5068488;27;99678;-72
2023/10/18 03:25:59;;;;;;;14.70;10.95;;;;;;;;;;5070542;27;98873;-72
2023/10/18 03:28:34;;;;;;;8.20;7.30;;;;;;;;;;5082590;27;99011;-72
2023/10/18 03:31:05;;;;;;;12.48;10.02;;;;;;;;;;5052520;27;99104;-72
2023/10/18 03:33:33;;;;;;;12.27;9.68;;;;;;;;;;5050103;27;98711;-72
2023/10/18 03:36:08;;;;;;;16.27;10.95;;;;;;;;;;5061492;27;100970;-74
2023/10/18 03:38:53;;;;;;;13.75;11.15;;;;;;;;;;5053268;27;98695;-72
2023/10/18 03:41:22;;;;;;;16.55;11.60;;;;;;;;;;5063513;27;98428;-73
2023/10/18 03:43:49;;;;;;;13.73;9.98;;;;;;;;;;5055501;27;99688;-72
2023/10/18 03:46:19;;;;;;;12.63;9.73;;;;;;;;;;5062338;27;101214;-72
2023/10/18 03:48:52;;;;;;;14.85;10.65;;;;;;;;;;5102398;27;101660;-72
2023/10/18 03:51:19;;;;;;;16.55;11.95;;;;;;;;;;5062063;27;100280;-72
2023/10/18 03:53:51;;;;;;;16.33;10.95;;;;;;;;;;5058280;27;98575;-72
2023/10/18 03:56:19;;;;;;;;;;;;;;;;;;5059621;27;98947;-71
2023/10/18 03:58:49;;;;;;;17.15;10.38;;;;;;;;;;5057843;27;122255;-72
2023/10/18 04:01:21;;;;;;;16.58;11.23;;;;;;;;;;5058798;27;99947;-73
2023/10/18 04:03:49;;;;;;;10.87;9.70;;;;;;;;;;5060572;27;99762;-73
2023/10/18 04:06:27;;;;;;;15.63;10.15;;;;;;;;;;5056431;27;99160;-70
2023/10/18 04:08:58;;;;;;;16.45;12.02;;;;;;;;;;5065089;27;100064;-73
2023/10/18 04:11:26;;;;;;;14.10;10.77;;;;;;;;;;5055288;27;99615;-72
2023/10/18 04:13:52;;;;;;;17.55;10.80;;;;;;;;;;5053676;27;99302;-72
2023/10/18 04:16:26;;;;;;;14.05;11.40;;;;;;;;;;5059052;27;99064;-72
2023/10/18 04:18:52;;;;;;;14.40;9.93;;;;;;;;;;5057490;27;98261;-73
2023/10/18 04:21:25;;;;;;;14.73;9.85;;;;;;;;;;5068441;27;98676;-72
2023/10/18 04:23:54;;;;;;;17.23;11.13;;;;;;;;;;5068169;27;98961;-72
2023/10/18 04:26:28;;;;;;;11.32;10.15;;;;;;;;;;5070264;27;98362;-72
2023/10/18 04:29:01;;;;;;;15.73;11.27;;;;;;;;;;5068746;27;98865;-72
2023/10/18 04:31:32;;;;;;;17.92;11.70;;;;;;;;;;5068011;27;98209;-73
2023/10/18 04:33:58;;;;;;;17.88;11.50;;;;;;;;;;5076718;27;98661;-71
2023/10/18 04:36:25;;;;;;;13.50;10.20;;;;;;;;;;5067908;27;98072;-73
2023/10/18 04:38:52;;;;;;;19.65;11.23;;;;;;;;;;5068631;27;98208;-72
2023/10/18 04:41:28;;;;;;;12.88;10.30;;;;;;;;;;5067162;27;99446;-71
2023/10/18 04:46:47;;;;;;;17.05;11.32;;;;;;;;;;5068598;27;98280;-71
2023/10/18 04:54:11;;;;;;;15.43;11.38;;;;;;;;;;5055823;27;99941;-72
2023/10/18 04:56:38;;;;;;;17.23;11.10;;;;;;;;;;5058365;27;99808;-72
2023/10/18 04:59:11;;;;;;;13.80;11.45;;;;;;;;;;5053727;27;99320;-72
2023/10/18 05:01:56;;;;;;;14.45;10.60;;;;;;;;;;5059831;27;99547;-72
2023/10/18 05:04:32;;;;;;;13.50;7.07;;;;;;;;;;5059355;27;98188;-72
2023/10/18 05:07:01;;;;;;;11.10;9.15;;;;;;;;;;5054556;27;99771;-71
2023/10/18 05:09:41;;;;;;;17.95;11.35;;;;;;;;;;5055372;27;99608;-72
2023/10/18 05:14:43;;;;;;;12.98;11.00;;;;;;;;;;5055070;27;99382;-72
2023/10/18 05:17:23;;;;;;;;;;;;;;;;;;5063058;27;100069;-72
2023/10/18 05:19:50;;;;;;;13.15;8.93;;;;;;;;;;5067409;27;125400;-73
2023/10/18 05:22:19;;;;;;;19.30;10.02;;;;;;;;;;5064040;27;99247;-73
2023/10/18 05:24:56;;;;;;;18.35;10.63;;;;;;;;;;5058387;27;100062;-72
2023/10/18 05:27:27;;;;;;;12.40;10.20;;;;;;;;;;5058842;27;98211;-72
2023/10/18 05:30:08;;;;;;;14.93;10.13;;;;;;;;;;5059703;27;99967;-72
2023/10/18 05:35:28;;;;;;;13.85;9.73;;;;;;;;;;5055883;27;100150;-72
2023/10/18 05:37:59;;;;;;;17.45;10.93;;;;;;;;;;5057142;27;99488;-72
2023/10/18 05:43:12;;;;;;;9.77;7.97;;;;;;;;;;5050899;27;98485;-72
2023/10/18 05:45:42;;;;;;;15.32;10.73;;;;;;;;;;5057188;27;99218;-72
2023/10/18 05:48:17;;;;;;;14.48;9.80;;;;;;;;;;5062530;27;99127;-73
2023/10/18 05:50:49;;;;;;;14.35;11.00;;;;;;;;;;5046511;27;98589;-72
2023/10/18 05:53:18;;;;;;;18.08;10.98;;;;;;;;;;5054794;27;100367;-73
2023/10/18 05:55:54;;;;;;;16.67;10.23;;;;;;;;;;5068811;27;98243;-72
2023/10/18 05:58:26;;;;;;;17.98;10.80;;;;;;;;;;5052042;27;100458;-72
2023/10/18 06:00:57;;;;;;;10.98;9.38;;;;;;;;;;5060130;27;100057;-72
2023/10/18 06:03:27;;;;;;;16.30;10.05;;;;;;;;;;5055774;27;98750;-73
2023/10/18 06:05:57;;;;;;;17.25;8.63;;;;;;;;;;5053816;27;99839;-72
2023/10/18 06:08:24;;;;;;;16.50;10.73;;;;;;;;;;5055714;27;99536;-72
2023/10/18 06:10:56;;;;;;;17.70;10.05;;;;;;;;;;5055861;27;99777;-72
2023/10/18 06:13:23;;;;;;;13.97;10.70;;;;;;;;;;5057010;27;99958;-72
2023/10/18 06:15:50;;;;;;;12.73;9.52;;;;;;;;;;5053778;27;99403;-72
2023/10/18 06:18:22;;;;;;;14.85;10.60;;;;;;;;;;5058235;27;98657;-72
2023/10/18 06:20:52;;;;;;;14.23;10.30;;;;;;;;;;5063523;27;98385;-72
2023/10/18 06:23:37;;;;;;;15.93;9.68;;;;;;;;;;5066454;27;98766;-72
2023/10/18 06:28:53;;;;;;;13.15;7.80;;;;;;;;;;5066614;27;98374;-72
2023/10/18 06:31:21;;;;;;;10.45;8.40;;;;;;;;;;5066293;27;98667;-72
2023/10/18 06:33:54;;;;;;;15.75;10.40;;;;;;;;;;5078365;27;99039;-72
2023/10/18 06:36:22;;;;;;;8.95;7.80;;;;;;;;;;5066662;27;98629;-72
2023/10/18 06:38:50;;;;;;;14.50;10.30;;;;;;;;;;5066947;27;98750;-72
2023/10/18 06:41:23;;;;;;;12.95;8.45;;;;;;;;;;5068723;27;99046;-73
2023/10/18 06:43:49;;;;;;;20.25;10.82;;;;;;;;;;5067409;27;98732;-72
2023/10/18 06:46:22;;;;;;;13.15;10.38;;;;;;;;;;5066583;27;99225;-71
2023/10/18 06:48:50;;;;;;;;;;;;;;;;;;5067464;27;98315;-72
2023/10/18 06:51:43;;;;;;;10.35;7.93;;;;;;;;;;5063497;27;128957;-72
2023/10/18 06:54:23;;;;;;;17.45;10.27;;;;;;;;;;5065693;27;98962;-72
2023/10/18 06:56:54;;;;;;;13.07;9.13;;;;;;;;;;5065021;27;98242;-72
2023/10/18 06:59:27;;;;;;;15.95;10.40;;;;;;;;;;5066488;27;99357;-71
2023/10/18 07:02:00;;;;;;;12.13;9.68;;;;;;;;;;5068326;27;99112;-72
2023/10/18 07:04:37;;;;;;;12.60;9.77;;;;;;;;;;5071229;27;99246;-72
2023/10/18 07:07:13;;;;;;;17.25;10.25;;;;;;;;;;5057608;27;99341;-72
2023/10/18 07:09:43;;;;;;;12.90;9.73;;;;;;;;;;5056006;27;98354;-72
2023/10/18 07:12:13;;;;;;;17.05;10.05;;;;;;;;;;5054152;27;99613;-72
2023/10/18 07:14:40;;;;;;;8.70;7.80;;;;;;;;;;5049301;27;100128;-70
2023/10/18 07:17:09;;;;;;;15.00;10.45;;;;;;;;;;5055656;27;98404;-71
2023/10/18 07:19:47;;;;;;;13.55;9.23;;;;;;;;;;5055326;27;98828;-73
2023/10/18 07:22:18;;;;;;;12.80;9.30;;;;;;;;;;5067183;27;100057;-72
2023/10/18 07:24:47;;;;;;;15.85;9.40;;;;;;;;;;5070745;27;98124;-71
2023/10/18 07:27:17;;;;;;;12.55;9.40;;;;;;;;;;5069369;27;99459;-72
2023/10/18 07:29:47;;;;;;;12.13;7.43;;;;;;;;;;5068680;27;98273;-71
2023/10/18 07:32:14;;;;;;;13.90;8.65;;;;;;;;;;5057242;27;98657;-71
2023/10/18 07:34:42;;;;;;;16.30;8.93;;;;;;;;;;5048405;27;100436;-71
2023/10/18 07:37:23;;;;;;;17.73;10.10;;;;;;;;;;5048449;27;98241;-72
2023/10/18 07:39:56;;;;;;;6.97;6.30;;;;;;;;;;5050981;27;98510;-71
2023/10/18 07:42:26;;;;;;;9.50;8.35;;;;;;;;;;5069523;27;98897;-72
2023/10/18 07:44:54;;;;;;;11.23;8.25;;;;;;;;;;5068822;27;98851;-72
2023/10/18 07:47:25;;;;;;;10.30;7.28;;;;;;;;;;5072445;27;98434;-70
2023/10/18 07:49:55;;;;;;;11.68;8.55;;;;;;;;;;5067792;27;98219;-72
2023/10/18 07:52:21;;;;;;;9.75;8.00;;;;;;;;;;5059290;27;99451;-71
2023/10/18 07:54:48;;;;;;;10.50;8.55;;;;;;;;;;5063826;27;99668;-72
2023/10/18 07:57:18;;;;;;;11.13;7.50;;;;;;;;;;5064792;27;98665;-70
2023/10/18 07:59:47;;;;;;;12.27;7.30;;;;;;;;;;5069361;27;98756;-71
2023/10/18 08:02:19;;;;;;;20.35;9.13;;;;;;;;;;5053668;27;100403;-71
2023/10/18 08:04:49;;;;;;;21.13;8.73;;;;;;;;;;5050138;27;99431;-71
2023/10/18 08:07:15;;;;;;;10.38;7.45;;;;;;;;;;5048285;27;98529;-71
2023/10/18 08:09:43;;;;;;;11.30;7.65;;;;;;;;;;5050712;27;99039;-71
2023/10/18 08:15:13;;;;;;;6.50;5.90;;;;;;;;;;5054059;27;99985;-73
2023/10/18 08:22:55;;;;;;;6.97;6.32;;;;;;;;;;5048430;27;99846;-71
2023/10/18 08:25:21;;;;;;;7.53;6.75;;;;;;;;;;5047668;27;98275;-71
2023/10/18 08:27:48;;;;;;;9.77;6.75;;;;;;;;;;5048164;27;98565;-71
2023/10/18 08:30:24;;;;;;;10.20;7.15;;;;;;;;;;5048040;27;99301;-71
2023/10/18 08:32:51;;;;;;;10.18;6.60;;;;;;;;;;5051781;27;98644;-72
2023/10/18 08:35:21;;;;;;;7.20;6.50;;;;;;;;;;5047574;27;99263;-71
2023/10/18 08:37:47;;;;;;;7.20;5.20;;;;;;;;;;5048022;27;98618;-72
2023/10/18 08:40:37;;;;;;;6.88;6.20;;;;;;;;;;5046968;27;98843;-71
2023/10/18 08:43:28;;;;;;;7.85;6.57;;;;;;;;;;5047858;27;98973;-71
2023/10/18 08:45:55;;;;;;;11.02;7.28;;;;;;;;;;5040724;27;98217;-71
2023/10/18 08:48:28;;;;;;;9.05;6.80;;;;;;;;;;5047159;27;99140;-72
2023/10/18 08:50:56;;;;;;;6.95;6.05;;;;;;;;;;5061545;27;100147;-71
2023/10/18 08:53:25;;;;;;;9.48;6.72;;;;;;;;;;5067211;27;98547;-70
2023/10/18 08:55:53;;;;;;;8.52;6.93;;;;;;;;;;5071245;27;99488;-71
2023/10/18 08:58:20;;;;;;;7.72;5.32;;;;;;;;;;5068310;27;98225;-72
2023/10/18 09:03:16;;;;;;;10.63;6.63;;;;;;;;;;5068282;27;99115;-71
2023/10/18 09:05:44;;;;;;;6.65;6.05;;;;;;;;;;5065289;27;98791;-71
2023/10/18 09:08:19;;;;;;;7.82;6.55;;;;;;;;;;5067301;27;98412;-71
2023/10/18 09:10:49;;;;;;;9.85;6.47;;;;;;;;;;5068009;27;98971;-71
2023/10/18 09:15:55;;;;;;;6.55;5.95;;;;;;;;;;5065707;27;100147;-70
2023/10/18 09:18:30;;;;;;;10.35;6.25;;;;;;;;;;5065761;27;98056;-70
2023/10/18 09:23:37;;;;;;;7.90;6.20;;;;;;;;;;5048075;27;99836;-71
2023/10/18 09:26:13;;;;;;;6.68;6.05;;;;;;;;;;5047314;27;98190;-72
2023/10/18 09:28:42;;;;;;;6.00;5.45;;;;;;;;;;5046899;27;98642;-72
2023/10/18 09:31:16;;;;;;;11.95;6.05;;;;;;;;;;5047061;27;98904;-72
2023/10/18 09:33:48;;;;;;;7.55;5.43;;;;;;;;;;5048447;27;99217;-71
2023/10/18 09:36:19;;;;;;;4.82;4.20;;;;;;;;;;5066517;27;98658;-72
2023/10/18 09:38:48;;;;;;;7.88;6.32;;;;;;;;;;5070951;27;98969;-71
2023/10/18 09:41:15;;;;;;;7.13;5.80;;;;;;;;;;5067302;27;98584;-71
2023/10/18 09:43:42;;;;;;;12.15;6.15;;;;;;;;;;5052887;27;98939;-72
2023/10/18 09:46:10;;;;;;;9.30;6.30;;;;;;;;;;5047342;27;98337;-72
2023/10/18 09:48:39;;;;;;;8.15;6.30;;;;;;;;;;5047439;27;99614;-72
2023/10/18 09:51:09;;;;;;;7.50;4.90;;;;;;;;;;5046134;27;98938;-71
2023/10/18 09:53:42;;;;;;;5.95;5.38;;;;;;;;;;5046950;27;99273;-72
2023/10/18 09:56:08;;;;;;;;;;;;;;;;;;5046745;27;98952;-71
2023/10/18 09:58:41;;;;;;;6.55;5.88;;;;;;;;;;5044916;27;127071;-73
2023/10/18 10:01:15;;;;;;;5.57;4.93;;;;;;;;;;5050174;27;98397;-72
2023/10/18 10:03:50;;;;;;;6.85;5.20;;;;;;;;;;5046090;27;98963;-72
2023/10/18 10:06:27;;;;;;;6.45;5.57;;;;;;;;;;5047318;27;98556;-72
2023/10/18 10:11:37;;;;;;;7.63;4.65;;;;;;;;;;5058327;27;99285;-72
2023/10/18 10:14:07;;;;;;;9.10;5.93;;;;;;;;;;5060027;27;98262;-72
2023/10/18 10:16:34;;;;;;;7.60;5.43;;;;;;;;;;5066847;27;98751;-72
2023/10/18 10:19:04;;;;;;;6.07;5.47;;;;;;;;;;5055628;27;98989;-72
2023/10/18 10:21:33;;;;;;;7.55;5.95;;;;;;;;;;5060751;27;98380;-73
2023/10/18 10:24:06;;;;;;;9.73;5.78;;;;;;;;;;5069968;27;99584;-73
2023/10/18 10:26:35;;;;;;;7.82;5.13;;;;;;;;;;5066022;27;98445;-72
2023/10/18 10:31:53;;;;;;;7.50;5.50;;;;;;;;;;5066318;27;100081;-71
2023/10/18 10:34:27;;;;;;;5.22;4.85;;;;;;;;;;5051599;27;98620;-71
2023/10/18 10:37:08;;;;;;;6.47;4.75;;;;;;;;;;5050658;27;98902;-72
2023/10/18 10:39:36;;;;;;;5.55;4.68;;;;;;;;;;5052886;27;99046;-72
2023/10/18 10:42:08;;;;;;;6.43;5.25;;;;;;;;;;5053043;27;98848;-71
2023/10/18 10:44:54;;;;;;;5.47;4.60;;;;;;;;;;5053173;27;98815;-72
2023/10/18 10:47:29;;;;;;;6.40;5.03;;;;;;;;;;5054623;27;99150;-70
2023/10/18 10:50:00;;;;;;;10.55;4.72;;;;;;;;;;5057687;27;98452;-71
2023/10/18 10:52:31;;;;;;;8.13;4.75;;;;;;;;;;5049623;27;99098;-72
2023/10/18 10:55:16;;;;;;;6.75;4.60;;;;;;;;;;5053789;27;98376;-72
2023/10/18 10:57:44;;;;;;;5.55;4.50;;;;;;;;;;5070160;27;98710;-71
2023/10/18 11:03:29;;;;;;;5.63;4.78;;;;;;;;;;5048151;27;98362;-71
2023/10/18 11:05:59;;;;;;;6.78;4.60;;;;;;;;;;5068980;27;99843;-72
2023/10/18 11:08:27;;;;;;;5.00;4.13;;;;;;;;;;5068907;27;100703;-71
2023/10/18 11:10:54;;;;;;;5.70;5.10;;;;;;;;;;5073214;27;98530;-71
2023/10/18 11:13:22;;;;;;;4.40;3.47;;;;;;;;;;5068832;27;98956;-71
2023/10/18 11:15:50;;;;;;;4.22;3.83;;;;;;;;;;5068659;27;98224;-71
2023/10/18 11:18:20;;;;;;;4.40;4.00;;;;;;;;;;5067450;27;98518;-71
2023/10/18 11:21:05;;;;;;;3.65;3.42;;;;;;;;;;5069202;27;99379;-71
2023/10/18 11:23:37;;;;;;;3.97;3.67;;;;;;;;;;5069573;27;98256;-72
2023/10/18 11:26:09;;;;;;;3.90;3.60;;;;;;;;;;5069604;27;98750;-72
2023/10/18 11:28:41;;;;;;;4.00;3.70;;;;;;;;;;5068515;27;100099;-72
2023/10/18 11:31:10;;;;;;;5.43;4.00;;;;;;;;;;5073083;27;98246;-71
2023/10/18 11:33:46;;;;;;;11.18;4.80;;;;;;;;;;5061877;27;99059;-72
2023/10/18 11:36:18;;;;;;;5.53;4.60;;;;;;;;;;5048899;27;98858;-72
2023/10/18 11:41:35;;;;;;;4.60;4.20;;;;;;;;;;5048310;27;99255;-71
2023/10/18 11:44:06;;;;;;;4.95;4.07;;;;;;;;;;5048029;27;98427;-71
2023/10/18 11:46:58;;;;;;;6.30;4.20;;;;;;;;;;5048457;27;98553;-71
2023/10/18 11:49:57;;;;;;;7.27;4.00;;;;;;;;;;5047403;27;100154;-71
2023/10/18 11:52:25;;;;;;;8.48;4.43;;;;;;;;;;5039535;27;98286;-71
2023/10/18 11:55:02;;;;;;;5.43;4.00;;;;;;;;;;5071053;27;98807;-71
2023/10/18 11:57:31;;;;;;;5.82;4.00;;;;;;;;;;5068189;27;98230;-72
2023/10/18 12:00:20;;;;;;;9.38;4.65;;;;;;;;;;5069113;27;99570;-71
2023/10/18 12:02:46;;;;;;;5.00;4.50;;;;;;;;;;5068223;27;98936;-71
2023/10/18 12:05:17;;;;;;;6.53;4.57;;;;;;;;;;5066499;27;98865;-72
2023/10/18 12:07:48;;;;;;;5.15;4.45;;;;;;;;;;5067534;27;98662;-72
2023/10/18 12:10:25;;;;;;;7.82;4.22;;;;;;;;;;5066002;27;98965;-71
2023/10/18 12:12:58;;;;;;;8.38;4.25;;;;;;;;;;5067787;27;98681;-72
2023/10/18 12:15:30;;;;;;;8.52;4.82;;;;;;;;;;5060109;27;99903;-70
2023/10/18 12:18:01;;;;;;;7.57;4.53;;;;;;;;;;5039973;27;99114;-70
2023/10/18 12:20:35;;;;;;;4.07;3.75;;;;;;;;;;5023870;27;99283;-70
2023/10/18 12:23:03;;;;;;;5.00;4.57;;;;;;;;;;5039068;27;99801;-72
2023/10/18 12:25:29;;;;;;;7.20;4.93;;;;;;;;;;5046840;27;98476;-71
2023/10/18 12:27:56;;;;;;;4.38;4.00;;;;;;;;;;5047579;27;99375;-70
2023/10/18 12:30:32;;;;;;;4.55;4.10;;;;;;;;;;5033692;27;99851;-71
2023/10/18 12:33:04;;;;;;;4.18;3.85;;;;;;;;;;5032453;27;100353;-70
2023/10/18 12:35:35;;;;;;;5.50;4.22;;;;;;;;;;5032727;27;100138;-71
2023/10/18 12:38:31;;;;;;;;;;;;;;;;;;5037392;27;99813;-71
2023/10/18 12:43:45;;;;;;;5.38;3.90;;;;;;;;;;5032216;27;100213;-71
2023/10/18 12:46:23;;;;;;;4.78;3.38;;;;;;;;;;5044947;27;98348;-72
2023/10/18 12:48:51;;;;;;;4.05;3.42;;;;;;;;;;5042234;27;98780;-73
2023/10/18 12:51:30;;;;;;;3.97;3.65;;;;;;;;;;5027006;27;99656;-74
2023/10/18 12:53:57;;;;;;;5.40;3.65;;;;;;;;;;5027142;27;98858;-74
2023/10/18 13:01:58;;;;;;;7.75;4.40;;;;;;;;;;5023772;27;98634;-73
2023/10/18 13:04:25;;;;;;;6.57;4.45;;;;;;;;;;5044714;27;98969;-73
2023/10/18 13:06:51;;;;;;;5.60;3.85;;;;;;;;;;5043686;27;98476;-75
2023/10/18 13:09:21;;;;;;;3.50;3.20;;;;;;;;;;5047634;27;98841;-73
2023/10/18 13:14:24;;;;;;;4.03;3.60;;;;;;;;;;5047211;27;98406;-73
2023/10/18 13:16:51;;;;;;;4.60;4.28;;;;;;;;;;5068278;27;99643;-73
2023/10/18 13:19:19;;;;;;;3.88;3.67;;;;;;;;;;5066941;27;98993;-72
2023/10/18 13:21:47;;;;;;;4.57;3.85;;;;;;;;;;5060318;27;98315;-72
2023/10/18 13:24:17;;;;;;;4.43;4.03;;;;;;;;;;5048401;27;98624;-72
2023/10/18 13:26:44;;;;;;;5.20;4.35;;;;;;;;;;5050019;27;99117;-73
2023/10/18 13:31:46;;;;;;;7.15;4.28;;;;;;;;;;5047787;27;99231;-74
2023/10/18 13:34:18;;;;;;;7.93;2.65;;;;;;;;;;5047118;27;98354;-73
2023/10/18 13:36:45;;;;;;;10.05;5.03;;;;;;;;;;5047686;27;99117;-74
2023/10/18 13:39:12;;;;;;;4.60;4.25;;;;;;;;;;5045772;27;98945;-72
2023/10/18 13:41:39;;;;;;;6.72;3.80;;;;;;;;;;5045877;27;98337;-73
2023/10/18 13:44:08;;;;;;;5.40;3.20;;;;;;;;;;5047413;27;99349;-73
2023/10/18 13:46:36;;;;;;;3.75;3.45;;;;;;;;;;5048978;27;100369;-72
2023/10/18 13:49:12;;;;;;;4.70;3.75;;;;;;;;;;5046224;27;99316;-73
2023/10/18 13:51:41;;;;;;;5.03;3.60;;;;;;;;;;5046714;27;100549;-72
2023/10/18 13:54:07;;;;;;;3.90;3.30;;;;;;;;;;5047248;27;98229;-74
2023/10/18 13:56:37;;;;;;;3.50;3.20;;;;;;;;;;5046160;27;98742;-73
2023/10/18 13:59:04;;;;;;;4.40;3.53;;;;;;;;;;5046951;27;100003;-72
2023/10/18 14:01:31;;;;;;;12.57;3.97;;;;;;;;;;5046763;27;98209;-73
2023/10/18 14:04:01;;;;;;;6.65;3.53;;;;;;;;;;5046145;27;98441;-75
2023/10/18 14:06:32;;;;;;;3.70;3.03;;;;;;;;;;5049127;27;98885;-74
2023/10/18 14:09:21;;;;;;;4.72;4.13;;;;;;;;;;5053232;27;98378;-73
2023/10/18 14:11:48;;;;;;;4.25;3.33;;;;;;;;;;5048888;27;100031;-74
2023/10/18 14:14:16;;;;;;;4.35;3.75;;;;;;;;;;5050029;27;98319;-76
2023/10/18 14:16:45;;;;;;;4.10;3.45;;;;;;;;;;5049651;27;98662;-73
2023/10/18 14:19:12;;;;;;;6.90;3.63;;;;;;;;;;5049966;27;99049;-74
2023/10/18 14:21:42;;;;;;;4.72;4.10;;;;;;;;;;5050140;27;98513;-74
2023/10/18 14:24:08;;;;;;;6.35;4.03;;;;;;;;;;5049580;27;99665;-73
2023/10/18 14:26:37;;;;;;;4.32;3.92;;;;;;;;;;5049921;27;99018;-74
2023/10/18 14:29:08;;;;;;;6.47;4.20;;;;;;;;;;5051180;27;98237;-73
2023/10/18 14:31:35;;;;;;;4.15;3.80;;;;;;;;;;5052541;27;99263;-74
2023/10/18 14:34:02;;;;;;;6.70;4.50;;;;;;;;;;5049874;27;98188;-74
2023/10/18 14:36:32;;;;;;;5.50;4.30;;;;;;;;;;5048789;27;98689;-74
2023/10/18 14:38:59;;;;;;;5.90;4.00;;;;;;;;;;5048878;27;98971;-73
2023/10/18 14:41:26;;;;;;;4.25;3.88;;;;;;;;;;5067882;27;98814;-74
2023/10/18 14:43:59;;;;;;;4.57;4.18;;;;;;;;;;5070597;27;98492;-74
2023/10/18 14:46:27;;;;;;;5.68;3.83;;;;;;;;;;5069543;27;100010;-73
2023/10/18 14:48:56;;;;;;;5.05;4.10;;;;;;;;;;5055979;27;98325;-73
2023/10/18 14:51:24;;;;;;;5.35;4.18;;;;;;;;;;5067145;27;99666;-73
2023/10/18 14:53:52;;;;;;;7.15;4.15;;;;;;;;;;5073169;27;99854;-73
2023/10/18 14:56:19;;;;;;;9.50;3.90;;;;;;;;;;5070541;27;98420;-73
2023/10/18 14:58:47;;;;;;;5.72;3.83;;;;;;;;;;5069405;27;99151;-73
2023/10/18 15:01:13;;;;;;;10.85;4.05;;;;;;;;;;5069169;27;98209;-74
2023/10/18 15:03:40;;;;;;;4.43;4.03;;;;;;;;;;5070023;27;98636;-73
2023/10/18 15:06:08;;;;;;;4.30;3.95;;;;;;;;;;5051303;27;99985;-74
2023/10/18 15:08:39;;;;;;;5.65;4.00;;;;;;;;;;5049216;27;98241;-74
2023/10/18 15:11:12;;;;;;;5.75;4.10;;;;;;;;;;5049633;27;98101;-74
2023/10/18 15:13:46;;;;;;;5.20;4.22;;;;;;;;;;5048716;27;100355;-73
2023/10/18 15:16:14;;;;;;;5.30;4.80;;;;;;;;;;5050597;27;98430;-74
2023/10/18 15:18:41;;;;;;;10.57;4.35;;;;;;;;;;5049424;27;99881;-73
2023/10/18 15:21:10;;;;;;;4.78;4.32;;;;;;;;;;5051872;27;98459;-74
2023/10/18 15:23:37;;;;;;;4.70;4.25;;;;;;;;;;5057730;27;99301;-73
2023/10/18 15:26:05;;;;;;;8.38;3.92;;;;;;;;;;5059711;27;100238;-72
2023/10/18 15:28:32;;;;;;;8.90;4.88;;;;;;;;;;5061377;27;98329;-73
2023/10/18 15:31:05;;;;;;;5.88;4.40;;;;;;;;;;5061922;27;99210;-72
2023/10/18 15:33:32;;;;;;;6.68;3.90;;;;;;;;;;5055012;27;99230;-72
2023/10/18 15:35:58;;;;;;;4.15;3.75;;;;;;;;;;5047232;27;98516;-71
2023/10/18 15:38:25;;;;;;;4.75;4.35;;;;;;;;;;5054424;27;99408;-73
2023/10/18 15:40:51;;;;;;;6.18;4.50;;;;;;;;;;5058619;27;98291;-72
2023/10/18 15:43:18;;;;;;;6.72;4.65;;;;;;;;;;5048568;27;99473;-72
2023/10/18 15:45:47;;;;;;;8.15;3.90;;;;;;;;;;5052747;27;99899;-72
2023/10/18 15:48:14;;;;;;;10.25;3.58;;;;;;;;;;5047342;27;98256;-71
2023/10/18 15:50:40;;;;;;;3.20;3.00;;;;;;;;;;5047212;27;99371;-73